sensor_id;sensor_type;location;lat;lon;timestamp;P1;durP1;ratioP1;P2;durP2;ratioP2
76131;SDS011;64877;50.994;13.650;2023-02-08T00:01:33;42.85;;;21.60;;
76131;SDS011;64877;50.994;13.650;2023-02-08T00:03:59;33.30;;;16.77;;
76131;SDS011;64877;50.994;13.650;2023-02-08T00:06:24;36.42;;;18.77;;
76131;SDS011;64877;50.994;13.650;2023-02-08T00:08:50;32.75;;;15.70;;
76131;SDS011;64877;50.994;13.650;2023-02-08T00:11:15;35.58;;;17.25;;
76131;SDS011;64877;50.994;13.650;2023-02-08T00:13:40;32.60;;;16.10;;
76131;SDS011;64877;50.994;13.650;2023-02-08T00:16:06;28.65;;;14.38;;
76131;SDS011;64877;50.994;13.650;2023-02-08T00:18:32;35.03;;;17.58;;
76131;SDS011;64877;50.994;13.650;2023-02-08T00:20:58;33.42;;;17.20;;
76131;SDS011;64877;50.994;13.650;2023-02-08T00:23:24;32.08;;;17.35;;
76131;SDS011;64877;50.994;13.650;2023-02-08T00:25:50;31.70;;;17.85;;
76131;SDS011;64877;50.994;13.650;2023-02-08T00:28:18;35.50;;;17.27;;
76131;SDS011;64877;50.994;13.650;2023-02-08T00:30:44;35.03;;;17.55;;
76131;SDS011;64877;50.994;13.650;2023-02-08T00:33:10;32.17;;;17.83;;
76131;SDS011;64877;50.994;13.650;2023-02-08T00:35:36;37.90;;;17.40;;
76131;SDS011;64877;50.994;13.650;2023-02-08T00:38:01;34.13;;;18.33;;
76131;SDS011;64877;50.994;13.650;2023-02-08T00:40:27;36.92;;;19.58;;
76131;SDS011;64877;50.994;13.650;2023-02-08T00:42:52;37.97;;;19.38;;
76131;SDS011;64877;50.994;13.650;2023-02-08T00:45:18;39.83;;;19.98;;
76131;SDS011;64877;50.994;13.650;2023-02-08T00:47:43;34.00;;;18.20;;
76131;SDS011;64877;50.994;13.650;2023-02-08T00:50:09;37.28;;;18.02;;
76131;SDS011;64877;50.994;13.650;2023-02-08T00:52:35;38.13;;;18.40;;
76131;SDS011;64877;50.994;13.650;2023-02-08T00:55:01;34.50;;;18.08;;
76131;SDS011;64877;50.994;13.650;2023-02-08T00:57:26;36.15;;;18.05;;
76131;SDS011;64877;50.994;13.650;2023-02-08T00:59:51;34.85;;;17.27;;
76131;SDS011;64877;50.994;13.650;2023-02-08T01:02:17;35.60;;;19.10;;
76131;SDS011;64877;50.994;13.650;2023-02-08T01:04:42;37.65;;;19.60;;
76131;SDS011;64877;50.994;13.650;2023-02-08T01:07:08;38.67;;;19.20;;
76131;SDS011;64877;50.994;13.650;2023-02-08T01:09:33;37.35;;;18.33;;
76131;SDS011;64877;50.994;13.650;2023-02-08T01:11:59;30.98;;;15.88;;
76131;SDS011;64877;50.994;13.650;2023-02-08T01:14:25;36.88;;;19.23;;
76131;SDS011;64877;50.994;13.650;2023-02-08T01:16:50;34.83;;;18.67;;
76131;SDS011;64877;50.994;13.650;2023-02-08T01:19:16;32.45;;;17.90;;
76131;SDS011;64877;50.994;13.650;2023-02-08T01:21:42;34.67;;;18.35;;
76131;SDS011;64877;50.994;13.650;2023-02-08T01:24:08;31.83;;;17.35;;
76131;SDS011;64877;50.994;13.650;2023-02-08T01:26:34;30.52;;;15.63;;
76131;SDS011;64877;50.994;13.650;2023-02-08T01:28:59;34.08;;;18.98;;
76131;SDS011;64877;50.994;13.650;2023-02-08T01:31:33;31.88;;;18.92;;
76131;SDS011;64877;50.994;13.650;2023-02-08T01:34:00;31.92;;;16.70;;
76131;SDS011;64877;50.994;13.650;2023-02-08T01:36:27;34.85;;;18.17;;
76131;SDS011;64877;50.994;13.650;2023-02-08T01:38:54;30.27;;;16.63;;
76131;SDS011;64877;50.994;13.650;2023-02-08T01:41:20;32.33;;;16.92;;
76131;SDS011;64877;50.994;13.650;2023-02-08T01:46:21;28.40;;;14.60;;
76131;SDS011;64877;50.994;13.650;2023-02-08T01:48:47;35.20;;;18.73;;
76131;SDS011;64877;50.994;13.650;2023-02-08T01:51:14;33.63;;;16.95;;
76131;SDS011;64877;50.994;13.650;2023-02-08T01:53:44;32.20;;;16.90;;
76131;SDS011;64877;50.994;13.650;2023-02-08T01:56:12;29.67;;;17.75;;
76131;SDS011;64877;50.994;13.650;2023-02-08T01:58:51;30.73;;;16.02;;
76131;SDS011;64877;50.994;13.650;2023-02-08T02:01:21;33.00;;;15.43;;
76131;SDS011;64877;50.994;13.650;2023-02-08T02:03:48;34.00;;;18.50;;
76131;SDS011;64877;50.994;13.650;2023-02-08T02:06:15;31.30;;;17.67;;
76131;SDS011;64877;50.994;13.650;2023-02-08T02:08:45;36.35;;;18.45;;
76131;SDS011;64877;50.994;13.650;2023-02-08T02:11:16;28.23;;;16.05;;
76131;SDS011;64877;50.994;13.650;2023-02-08T02:13:42;32.95;;;15.73;;
76131;SDS011;64877;50.994;13.650;2023-02-08T02:16:08;33.22;;;17.38;;
76131;SDS011;64877;50.994;13.650;2023-02-08T02:18:33;35.03;;;16.85;;
76131;SDS011;64877;50.994;13.650;2023-02-08T02:32:02;32.53;;;16.40;;
76131;SDS011;64877;50.994;13.650;2023-02-08T02:34:50;29.55;;;15.05;;
76131;SDS011;64877;50.994;13.650;2023-02-08T02:37:46;28.60;;;14.88;;
76131;SDS011;64877;50.994;13.650;2023-02-08T02:46:57;37.15;;;17.10;;
76131;SDS011;64877;50.994;13.650;2023-02-08T02:54:19;33.63;;;17.63;;
76131;SDS011;64877;50.994;13.650;2023-02-08T02:56:49;32.67;;;16.35;;
76131;SDS011;64877;50.994;13.650;2023-02-08T02:59:18;31.02;;;16.45;;
76131;SDS011;64877;50.994;13.650;2023-02-08T03:01:45;33.58;;;17.85;;
76131;SDS011;64877;50.994;13.650;2023-02-08T03:04:15;32.53;;;17.60;;
76131;SDS011;64877;50.994;13.650;2023-02-08T03:06:47;33.50;;;17.40;;
76131;SDS011;64877;50.994;13.650;2023-02-08T03:09:27;31.08;;;15.18;;
76131;SDS011;64877;50.994;13.650;2023-02-08T03:12:04;33.20;;;16.20;;
76131;SDS011;64877;50.994;13.650;2023-02-08T03:14:33;25.88;;;15.82;;
76131;SDS011;64877;50.994;13.650;2023-02-08T03:22:44;35.65;;;16.30;;
76131;SDS011;64877;50.994;13.650;2023-02-08T03:25:23;32.55;;;16.58;;
76131;SDS011;64877;50.994;13.650;2023-02-08T03:33:07;36.30;;;18.23;;
76131;SDS011;64877;50.994;13.650;2023-02-08T03:38:39;38.38;;;18.25;;
76131;SDS011;64877;50.994;13.650;2023-02-08T03:41:08;33.58;;;17.20;;
76131;SDS011;64877;50.994;13.650;2023-02-08T03:43:40;31.95;;;16.65;;
76131;SDS011;64877;50.994;13.650;2023-02-08T03:46:16;35.25;;;16.48;;
76131;SDS011;64877;50.994;13.650;2023-02-08T03:48:48;32.33;;;16.17;;
76131;SDS011;64877;50.994;13.650;2023-02-08T03:51:20;36.22;;;16.95;;
76131;SDS011;64877;50.994;13.650;2023-02-08T03:53:48;29.25;;;16.55;;
76131;SDS011;64877;50.994;13.650;2023-02-08T03:56:21;35.65;;;17.52;;
76131;SDS011;64877;50.994;13.650;2023-02-08T03:58:57;30.08;;;16.55;;
76131;SDS011;64877;50.994;13.650;2023-02-08T04:01:29;31.65;;;16.25;;
76131;SDS011;64877;50.994;13.650;2023-02-08T04:04:00;31.85;;;16.98;;
76131;SDS011;64877;50.994;13.650;2023-02-08T04:06:26;35.42;;;16.05;;
76131;SDS011;64877;50.994;13.650;2023-02-08T04:08:52;32.15;;;16.40;;
76131;SDS011;64877;50.994;13.650;2023-02-08T04:11:17;30.65;;;16.40;;
76131;SDS011;64877;50.994;13.650;2023-02-08T04:13:43;36.97;;;16.92;;
76131;SDS011;64877;50.994;13.650;2023-02-08T04:16:11;37.78;;;17.65;;
76131;SDS011;64877;50.994;13.650;2023-02-08T04:18:37;30.10;;;16.98;;
76131;SDS011;64877;50.994;13.650;2023-02-08T04:21:03;36.88;;;16.98;;
76131;SDS011;64877;50.994;13.650;2023-02-08T04:23:29;30.88;;;16.45;;
76131;SDS011;64877;50.994;13.650;2023-02-08T04:25:54;32.53;;;17.00;;
76131;SDS011;64877;50.994;13.650;2023-02-08T04:28:20;33.30;;;16.92;;
76131;SDS011;64877;50.994;13.650;2023-02-08T04:30:45;31.17;;;15.85;;
76131;SDS011;64877;50.994;13.650;2023-02-08T04:33:11;32.05;;;15.73;;
76131;SDS011;64877;50.994;13.650;2023-02-08T04:35:38;33.00;;;15.95;;
76131;SDS011;64877;50.994;13.650;2023-02-08T04:38:05;34.30;;;16.67;;
76131;SDS011;64877;50.994;13.650;2023-02-08T04:40:30;28.83;;;15.02;;
76131;SDS011;64877;50.994;13.650;2023-02-08T04:42:56;37.03;;;17.05;;
76131;SDS011;64877;50.994;13.650;2023-02-08T04:45:21;30.33;;;14.85;;
76131;SDS011;64877;50.994;13.650;2023-02-08T04:47:47;32.08;;;16.92;;
76131;SDS011;64877;50.994;13.650;2023-02-08T04:50:13;37.53;;;17.10;;
76131;SDS011;64877;50.994;13.650;2023-02-08T04:52:38;33.00;;;16.08;;
76131;SDS011;64877;50.994;13.650;2023-02-08T04:55:04;28.02;;;15.35;;
76131;SDS011;64877;50.994;13.650;2023-02-08T04:57:29;34.70;;;15.70;;
76131;SDS011;64877;50.994;13.650;2023-02-08T04:59:55;31.10;;;15.77;;
76131;SDS011;64877;50.994;13.650;2023-02-08T05:02:20;28.45;;;15.93;;
76131;SDS011;64877;50.994;13.650;2023-02-08T05:04:45;29.98;;;14.48;;
76131;SDS011;64877;50.994;13.650;2023-02-08T05:07:11;28.10;;;15.48;;
76131;SDS011;64877;50.994;13.650;2023-02-08T05:09:36;29.73;;;14.40;;
76131;SDS011;64877;50.994;13.650;2023-02-08T05:12:01;29.48;;;14.32;;
76131;SDS011;64877;50.994;13.650;2023-02-08T05:14:27;29.80;;;14.88;;
76131;SDS011;64877;50.994;13.650;2023-02-08T05:16:52;28.45;;;14.77;;
76131;SDS011;64877;50.994;13.650;2023-02-08T05:19:18;24.45;;;12.35;;
76131;SDS011;64877;50.994;13.650;2023-02-08T05:21:43;28.40;;;14.75;;
76131;SDS011;64877;50.994;13.650;2023-02-08T05:24:08;31.27;;;14.80;;
76131;SDS011;64877;50.994;13.650;2023-02-08T05:26:36;25.80;;;13.82;;
76131;SDS011;64877;50.994;13.650;2023-02-08T05:29:03;23.17;;;11.82;;
76131;SDS011;64877;50.994;13.650;2023-02-08T05:31:28;29.73;;;13.30;;
76131;SDS011;64877;50.994;13.650;2023-02-08T05:33:53;27.90;;;12.70;;
76131;SDS011;64877;50.994;13.650;2023-02-08T05:36:19;32.53;;;14.88;;
76131;SDS011;64877;50.994;13.650;2023-02-08T05:38:45;25.48;;;13.25;;
76131;SDS011;64877;50.994;13.650;2023-02-08T05:41:11;25.95;;;13.43;;
76131;SDS011;64877;50.994;13.650;2023-02-08T05:43:36;29.70;;;13.88;;
76131;SDS011;64877;50.994;13.650;2023-02-08T05:46:02;29.15;;;14.80;;
76131;SDS011;64877;50.994;13.650;2023-02-08T05:48:28;27.83;;;13.55;;
76131;SDS011;64877;50.994;13.650;2023-02-08T05:50:55;33.78;;;14.82;;
76131;SDS011;64877;50.994;13.650;2023-02-08T05:53:20;33.00;;;16.40;;
76131;SDS011;64877;50.994;13.650;2023-02-08T05:55:46;29.67;;;15.30;;
76131;SDS011;64877;50.994;13.650;2023-02-08T05:58:14;29.13;;;14.27;;
76131;SDS011;64877;50.994;13.650;2023-02-08T06:00:40;29.23;;;13.85;;
76131;SDS011;64877;50.994;13.650;2023-02-08T06:03:05;28.85;;;14.57;;
76131;SDS011;64877;50.994;13.650;2023-02-08T06:05:31;29.23;;;13.63;;
76131;SDS011;64877;50.994;13.650;2023-02-08T06:07:57;31.85;;;15.15;;
76131;SDS011;64877;50.994;13.650;2023-02-08T06:10:22;33.38;;;15.73;;
76131;SDS011;64877;50.994;13.650;2023-02-08T06:12:48;31.40;;;15.38;;
76131;SDS011;64877;50.994;13.650;2023-02-08T06:15:13;31.83;;;15.73;;
76131;SDS011;64877;50.994;13.650;2023-02-08T06:17:39;27.10;;;14.00;;
76131;SDS011;64877;50.994;13.650;2023-02-08T06:20:04;33.65;;;15.88;;
76131;SDS011;64877;50.994;13.650;2023-02-08T06:22:30;35.38;;;16.88;;
76131;SDS011;64877;50.994;13.650;2023-02-08T06:24:58;32.38;;;16.45;;
76131;SDS011;64877;50.994;13.650;2023-02-08T06:27:24;28.92;;;15.02;;
76131;SDS011;64877;50.994;13.650;2023-02-08T06:29:49;31.02;;;14.30;;
76131;SDS011;64877;50.994;13.650;2023-02-08T06:32:14;26.52;;;13.68;;
76131;SDS011;64877;50.994;13.650;2023-02-08T06:34:40;28.17;;;13.07;;
76131;SDS011;64877;50.994;13.650;2023-02-08T06:37:05;24.65;;;12.50;;
76131;SDS011;64877;50.994;13.650;2023-02-08T06:39:30;23.80;;;12.98;;
76131;SDS011;64877;50.994;13.650;2023-02-08T06:41:56;26.70;;;12.77;;
76131;SDS011;64877;50.994;13.650;2023-02-08T06:44:21;29.55;;;15.02;;
76131;SDS011;64877;50.994;13.650;2023-02-08T06:46:47;37.70;;;20.52;;
76131;SDS011;64877;50.994;13.650;2023-02-08T06:49:13;34.83;;;18.00;;
76131;SDS011;64877;50.994;13.650;2023-02-08T06:51:38;32.55;;;16.30;;
76131;SDS011;64877;50.994;13.650;2023-02-08T06:54:04;33.58;;;16.42;;
76131;SDS011;64877;50.994;13.650;2023-02-08T06:56:29;29.88;;;14.90;;
76131;SDS011;64877;50.994;13.650;2023-02-08T06:58:55;25.92;;;14.25;;
76131;SDS011;64877;50.994;13.650;2023-02-08T07:01:21;28.65;;;14.50;;
76131;SDS011;64877;50.994;13.650;2023-02-08T07:03:46;27.48;;;15.13;;
76131;SDS011;64877;50.994;13.650;2023-02-08T07:06:12;29.98;;;14.98;;
76131;SDS011;64877;50.994;13.650;2023-02-08T07:08:38;28.63;;;14.00;;
76131;SDS011;64877;50.994;13.650;2023-02-08T07:11:07;28.73;;;14.68;;
76131;SDS011;64877;50.994;13.650;2023-02-08T07:13:34;31.35;;;14.35;;
76131;SDS011;64877;50.994;13.650;2023-02-08T07:16:01;27.10;;;14.05;;
76131;SDS011;64877;50.994;13.650;2023-02-08T07:18:27;29.13;;;13.88;;
76131;SDS011;64877;50.994;13.650;2023-02-08T07:20:52;28.73;;;14.23;;
76131;SDS011;64877;50.994;13.650;2023-02-08T07:23:17;23.83;;;12.07;;
76131;SDS011;64877;50.994;13.650;2023-02-08T07:25:43;25.80;;;13.75;;
76131;SDS011;64877;50.994;13.650;2023-02-08T07:28:09;30.35;;;12.38;;
76131;SDS011;64877;50.994;13.650;2023-02-08T07:30:35;27.83;;;14.10;;
76131;SDS011;64877;50.994;13.650;2023-02-08T07:33:00;27.17;;;12.77;;
76131;SDS011;64877;50.994;13.650;2023-02-08T07:35:26;26.60;;;14.52;;
76131;SDS011;64877;50.994;13.650;2023-02-08T07:37:51;30.52;;;14.93;;
76131;SDS011;64877;50.994;13.650;2023-02-08T07:40:16;22.60;;;12.23;;
76131;SDS011;64877;50.994;13.650;2023-02-08T07:42:42;28.13;;;13.38;;
76131;SDS011;64877;50.994;13.650;2023-02-08T07:45:07;25.73;;;12.90;;
76131;SDS011;64877;50.994;13.650;2023-02-08T07:47:33;28.65;;;14.20;;
76131;SDS011;64877;50.994;13.650;2023-02-08T07:49:58;25.77;;;13.05;;
76131;SDS011;64877;50.994;13.650;2023-02-08T07:52:23;29.70;;;13.70;;
76131;SDS011;64877;50.994;13.650;2023-02-08T07:54:49;30.17;;;14.95;;
76131;SDS011;64877;50.994;13.650;2023-02-08T07:57:14;28.08;;;13.70;;
76131;SDS011;64877;50.994;13.650;2023-02-08T07:59:45;31.45;;;15.23;;
76131;SDS011;64877;50.994;13.650;2023-02-08T08:02:12;29.02;;;14.65;;
76131;SDS011;64877;50.994;13.650;2023-02-08T08:04:38;27.92;;;13.35;;
76131;SDS011;64877;50.994;13.650;2023-02-08T08:07:04;32.20;;;17.75;;
76131;SDS011;64877;50.994;13.650;2023-02-08T08:09:29;33.45;;;16.58;;
76131;SDS011;64877;50.994;13.650;2023-02-08T08:11:54;28.85;;;15.38;;
76131;SDS011;64877;50.994;13.650;2023-02-08T08:14:20;30.90;;;16.08;;
76131;SDS011;64877;50.994;13.650;2023-02-08T08:16:45;30.92;;;15.13;;
76131;SDS011;64877;50.994;13.650;2023-02-08T08:19:11;32.05;;;15.48;;
76131;SDS011;64877;50.994;13.650;2023-02-08T08:21:36;33.97;;;16.50;;
76131;SDS011;64877;50.994;13.650;2023-02-08T08:24:02;34.40;;;17.02;;
76131;SDS011;64877;50.994;13.650;2023-02-08T08:26:27;32.05;;;15.38;;
76131;SDS011;64877;50.994;13.650;2023-02-08T08:28:53;29.98;;;14.80;;
76131;SDS011;64877;50.994;13.650;2023-02-08T08:31:19;33.97;;;16.77;;
76131;SDS011;64877;50.994;13.650;2023-02-08T08:33:46;33.17;;;17.77;;
76131;SDS011;64877;50.994;13.650;2023-02-08T08:36:13;32.75;;;16.05;;
76131;SDS011;64877;50.994;13.650;2023-02-08T08:38:38;34.13;;;17.60;;
76131;SDS011;64877;50.994;13.650;2023-02-08T08:41:11;34.03;;;15.95;;
76131;SDS011;64877;50.994;13.650;2023-02-08T08:43:39;39.67;;;16.75;;
76131;SDS011;64877;50.994;13.650;2023-02-08T08:46:05;35.25;;;16.75;;
76131;SDS011;64877;50.994;13.650;2023-02-08T08:48:32;40.33;;;20.63;;
76131;SDS011;64877;50.994;13.650;2023-02-08T08:50:58;32.28;;;17.83;;
76131;SDS011;64877;50.994;13.650;2023-02-08T08:53:23;32.92;;;17.17;;
76131;SDS011;64877;50.994;13.650;2023-02-08T08:55:49;36.60;;;18.30;;
76131;SDS011;64877;50.994;13.650;2023-02-08T08:58:15;32.60;;;16.50;;
76131;SDS011;64877;50.994;13.650;2023-02-08T09:00:40;37.95;;;19.33;;
76131;SDS011;64877;50.994;13.650;2023-02-08T09:03:05;37.58;;;19.92;;
76131;SDS011;64877;50.994;13.650;2023-02-08T09:05:31;35.42;;;19.15;;
76131;SDS011;64877;50.994;13.650;2023-02-08T09:07:56;35.80;;;18.50;;
76131;SDS011;64877;50.994;13.650;2023-02-08T09:10:21;38.53;;;18.17;;
76131;SDS011;64877;50.994;13.650;2023-02-08T09:12:47;38.90;;;18.67;;
76131;SDS011;64877;50.994;13.650;2023-02-08T09:15:12;35.70;;;19.27;;
76131;SDS011;64877;50.994;13.650;2023-02-08T09:17:38;43.17;;;20.90;;
76131;SDS011;64877;50.994;13.650;2023-02-08T09:20:03;39.70;;;20.42;;
76131;SDS011;64877;50.994;13.650;2023-02-08T09:22:29;38.25;;;20.17;;
76131;SDS011;64877;50.994;13.650;2023-02-08T09:24:55;37.55;;;20.30;;
76131;SDS011;64877;50.994;13.650;2023-02-08T09:27:20;37.00;;;20.23;;
76131;SDS011;64877;50.994;13.650;2023-02-08T09:29:45;40.42;;;21.98;;
76131;SDS011;64877;50.994;13.650;2023-02-08T09:32:11;39.60;;;20.30;;
76131;SDS011;64877;50.994;13.650;2023-02-08T09:34:36;46.65;;;21.42;;
76131;SDS011;64877;50.994;13.650;2023-02-08T09:37:02;46.17;;;21.75;;
76131;SDS011;64877;50.994;13.650;2023-02-08T09:39:27;49.20;;;21.77;;
76131;SDS011;64877;50.994;13.650;2023-02-08T09:44:43;38.53;;;19.42;;
76131;SDS011;64877;50.994;13.650;2023-02-08T09:47:21;41.35;;;20.88;;
76131;SDS011;64877;50.994;13.650;2023-02-08T09:49:56;44.08;;;18.85;;
76131;SDS011;64877;50.994;13.650;2023-02-08T09:52:37;40.78;;;18.50;;
76131;SDS011;64877;50.994;13.650;2023-02-08T09:55:11;37.70;;;17.30;;
76131;SDS011;64877;50.994;13.650;2023-02-08T09:57:44;29.88;;;16.65;;
76131;SDS011;64877;50.994;13.650;2023-02-08T10:00:12;34.97;;;16.17;;
76131;SDS011;64877;50.994;13.650;2023-02-08T10:02:44;31.20;;;15.85;;
76131;SDS011;64877;50.994;13.650;2023-02-08T10:05:13;31.17;;;14.93;;
76131;SDS011;64877;50.994;13.650;2023-02-08T10:07:44;33.22;;;14.85;;
76131;SDS011;64877;50.994;13.650;2023-02-08T10:10:14;28.05;;;14.05;;
76131;SDS011;64877;50.994;13.650;2023-02-08T10:15:52;29.70;;;14.27;;
76131;SDS011;64877;50.994;13.650;2023-02-08T10:18:35;30.33;;;16.67;;
76131;SDS011;64877;50.994;13.650;2023-02-08T10:37:14;33.95;;;15.63;;
76131;SDS011;64877;50.994;13.650;2023-02-08T10:39:44;26.92;;;15.05;;
76131;SDS011;64877;50.994;13.650;2023-02-08T10:42:17;29.42;;;15.85;;
76131;SDS011;64877;50.994;13.650;2023-02-08T10:47:43;29.50;;;15.93;;
76131;SDS011;64877;50.994;13.650;2023-02-08T10:50:28;28.33;;;14.73;;
76131;SDS011;64877;50.994;13.650;2023-02-08T10:52:58;30.92;;;15.55;;
76131;SDS011;64877;50.994;13.650;2023-02-08T10:55:24;31.70;;;15.18;;
76131;SDS011;64877;50.994;13.650;2023-02-08T10:57:50;30.48;;;15.38;;
76131;SDS011;64877;50.994;13.650;2023-02-08T11:00:23;28.60;;;16.63;;
76131;SDS011;64877;50.994;13.650;2023-02-08T11:02:56;31.08;;;16.98;;
76131;SDS011;64877;50.994;13.650;2023-02-08T11:08:07;33.05;;;17.33;;
76131;SDS011;64877;50.994;13.650;2023-02-08T11:10:35;32.58;;;16.42;;
76131;SDS011;64877;50.994;13.650;2023-02-08T11:13:06;32.45;;;16.88;;
76131;SDS011;64877;50.994;13.650;2023-02-08T11:15:45;33.08;;;17.95;;
76131;SDS011;64877;50.994;13.650;2023-02-08T11:18:18;33.92;;;17.35;;
76131;SDS011;64877;50.994;13.650;2023-02-08T11:20:54;40.35;;;19.55;;
76131;SDS011;64877;50.994;13.650;2023-02-08T11:23:25;34.22;;;18.30;;
76131;SDS011;64877;50.994;13.650;2023-02-08T11:25:54;39.10;;;19.88;;
76131;SDS011;64877;50.994;13.650;2023-02-08T11:28:36;36.75;;;19.02;;
76131;SDS011;64877;50.994;13.650;2023-02-08T11:31:02;36.50;;;18.10;;
76131;SDS011;64877;50.994;13.650;2023-02-08T11:33:40;32.17;;;16.83;;
76131;SDS011;64877;50.994;13.650;2023-02-08T11:36:25;35.92;;;18.15;;
76131;SDS011;64877;50.994;13.650;2023-02-08T11:38:52;30.48;;;15.88;;
76131;SDS011;64877;50.994;13.650;2023-02-08T11:41:18;34.65;;;18.77;;
76131;SDS011;64877;50.994;13.650;2023-02-08T11:43:51;37.90;;;19.13;;
76131;SDS011;64877;50.994;13.650;2023-02-08T11:46:43;33.70;;;16.88;;
76131;SDS011;64877;50.994;13.650;2023-02-08T11:49:58;33.50;;;18.00;;
76131;SDS011;64877;50.994;13.650;2023-02-08T11:52:06;34.67;;;15.68;;
76131;SDS011;64877;50.994;13.650;2023-02-08T11:54:44;33.50;;;18.23;;
76131;SDS011;64877;50.994;13.650;2023-02-08T11:57:16;35.38;;;16.48;;
76131;SDS011;64877;50.994;13.650;2023-02-08T11:59:43;32.33;;;16.83;;
76131;SDS011;64877;50.994;13.650;2023-02-08T12:02:26;34.50;;;15.05;;
76131;SDS011;64877;50.994;13.650;2023-02-08T12:04:52;28.80;;;13.93;;
76131;SDS011;64877;50.994;13.650;2023-02-08T12:15:37;24.75;;;12.32;;
76131;SDS011;64877;50.994;13.650;2023-02-08T12:18:30;24.02;;;11.85;;
76131;SDS011;64877;50.994;13.650;2023-02-08T12:21:20;22.60;;;11.18;;
76131;SDS011;64877;50.994;13.650;2023-02-08T12:32:24;23.05;;;11.00;;
76131;SDS011;64877;50.994;13.650;2023-02-08T12:41:35;21.92;;;12.18;;
76131;SDS011;64877;50.994;13.650;2023-02-08T12:44:26;24.98;;;12.15;;
76131;SDS011;64877;50.994;13.650;2023-02-08T12:49:53;27.45;;;12.85;;
76131;SDS011;64877;50.994;13.650;2023-02-08T12:55:18;24.52;;;11.40;;
76131;SDS011;64877;50.994;13.650;2023-02-08T12:57:51;26.00;;;12.02;;
76131;SDS011;64877;50.994;13.650;2023-02-08T13:00:20;24.15;;;12.23;;
76131;SDS011;64877;50.994;13.650;2023-02-08T13:02:59;21.67;;;11.35;;
76131;SDS011;64877;50.994;13.650;2023-02-08T13:05:37;26.17;;;13.13;;
76131;SDS011;64877;50.994;13.650;2023-02-08T13:08:12;30.77;;;12.30;;
76131;SDS011;64877;50.994;13.650;2023-02-08T13:10:54;23.20;;;11.32;;
76131;SDS011;64877;50.994;13.650;2023-02-08T13:13:23;24.00;;;11.50;;
76131;SDS011;64877;50.994;13.650;2023-02-08T13:15:59;24.90;;;11.35;;
76131;SDS011;64877;50.994;13.650;2023-02-08T13:18:34;25.58;;;11.27;;
76131;SDS011;64877;50.994;13.650;2023-02-08T13:23:47;23.95;;;11.07;;
76131;SDS011;64877;50.994;13.650;2023-02-08T13:26:27;26.85;;;11.95;;
76131;SDS011;64877;50.994;13.650;2023-02-08T13:28:57;24.27;;;11.32;;
76131;SDS011;64877;50.994;13.650;2023-02-08T13:31:36;23.90;;;11.23;;
76131;SDS011;64877;50.994;13.650;2023-02-08T13:34:06;26.35;;;11.50;;
76131;SDS011;64877;50.994;13.650;2023-02-08T13:36:40;30.25;;;12.98;;
76131;SDS011;64877;50.994;13.650;2023-02-08T13:42:04;28.05;;;12.05;;
76131;SDS011;64877;50.994;13.650;2023-02-08T13:44:38;22.05;;;10.63;;
76131;SDS011;64877;50.994;13.650;2023-02-08T13:47:05;25.30;;;10.75;;
76131;SDS011;64877;50.994;13.650;2023-02-08T14:03:29;24.80;;;11.32;;
76131;SDS011;64877;50.994;13.650;2023-02-08T14:06:07;24.08;;;11.40;;
76131;SDS011;64877;50.994;13.650;2023-02-08T14:14:14;22.33;;;10.23;;
76131;SDS011;64877;50.994;13.650;2023-02-08T14:16:44;19.35;;;9.65;;
76131;SDS011;64877;50.994;13.650;2023-02-08T14:21:44;20.27;;;9.10;;
76131;SDS011;64877;50.994;13.650;2023-02-08T14:24:40;18.35;;;9.10;;
76131;SDS011;64877;50.994;13.650;2023-02-08T14:27:32;17.38;;;7.55;;
76131;SDS011;64877;50.994;13.650;2023-02-08T14:32:34;17.95;;;8.30;;
76131;SDS011;64877;50.994;13.650;2023-02-08T14:37:37;16.15;;;7.50;;
76131;SDS011;64877;50.994;13.650;2023-02-08T14:45:28;18.83;;;8.82;;
76131;SDS011;64877;50.994;13.650;2023-02-08T14:48:03;16.75;;;8.80;;
76131;SDS011;64877;50.994;13.650;2023-02-08T14:58:48;19.90;;;8.70;;
76131;SDS011;64877;50.994;13.650;2023-02-08T15:01:19;21.48;;;10.02;;
76131;SDS011;64877;50.994;13.650;2023-02-08T15:03:49;20.65;;;10.63;;
76131;SDS011;64877;50.994;13.650;2023-02-08T15:08:52;18.98;;;8.48;;
76131;SDS011;64877;50.994;13.650;2023-02-08T15:11:29;20.80;;;8.60;;
76131;SDS011;64877;50.994;13.650;2023-02-08T15:13:57;20.38;;;9.65;;
76131;SDS011;64877;50.994;13.650;2023-02-08T15:16:31;20.08;;;9.82;;
76131;SDS011;64877;50.994;13.650;2023-02-08T15:18:59;21.83;;;10.70;;
76131;SDS011;64877;50.994;13.650;2023-02-08T15:21:28;21.90;;;10.27;;
76131;SDS011;64877;50.994;13.650;2023-02-08T15:24:03;22.30;;;9.88;;
76131;SDS011;64877;50.994;13.650;2023-02-08T15:26:30;23.25;;;10.88;;
76131;SDS011;64877;50.994;13.650;2023-02-08T15:28:56;22.30;;;9.90;;
76131;SDS011;64877;50.994;13.650;2023-02-08T15:31:31;23.98;;;10.85;;
76131;SDS011;64877;50.994;13.650;2023-02-08T15:33:58;18.98;;;9.32;;
76131;SDS011;64877;50.994;13.650;2023-02-08T15:36:32;22.55;;;10.23;;
76131;SDS011;64877;50.994;13.650;2023-02-08T15:41:30;17.83;;;9.00;;
76131;SDS011;64877;50.994;13.650;2023-02-08T15:46:46;22.88;;;10.23;;
76131;SDS011;64877;50.994;13.650;2023-02-08T15:49:13;19.83;;;10.00;;
76131;SDS011;64877;50.994;13.650;2023-02-08T15:51:46;19.80;;;10.18;;
76131;SDS011;64877;50.994;13.650;2023-02-08T15:54:15;22.52;;;9.50;;
76131;SDS011;64877;50.994;13.650;2023-02-08T15:56:46;19.83;;;9.70;;
76131;SDS011;64877;50.994;13.650;2023-02-08T15:59:19;21.10;;;10.25;;
76131;SDS011;64877;50.994;13.650;2023-02-08T16:01:51;19.58;;;9.15;;
76131;SDS011;64877;50.994;13.650;2023-02-08T16:04:18;16.98;;;9.00;;
76131;SDS011;64877;50.994;13.650;2023-02-08T16:06:45;16.65;;;9.30;;
76131;SDS011;64877;50.994;13.650;2023-02-08T16:09:16;24.65;;;10.45;;
76131;SDS011;64877;50.994;13.650;2023-02-08T16:11:45;22.88;;;11.15;;
76131;SDS011;64877;50.994;13.650;2023-02-08T16:14:13;20.70;;;9.75;;
76131;SDS011;64877;50.994;13.650;2023-02-08T16:16:43;19.15;;;10.00;;
76131;SDS011;64877;50.994;13.650;2023-02-08T16:21:54;25.25;;;11.93;;
76131;SDS011;64877;50.994;13.650;2023-02-08T16:24:23;19.45;;;11.02;;
76131;SDS011;64877;50.994;13.650;2023-02-08T16:32:34;24.40;;;11.73;;
76131;SDS011;64877;50.994;13.650;2023-02-08T16:34:53;23.40;;;10.82;;
76131;SDS011;64877;50.994;13.650;2023-02-08T16:37:22;20.08;;;10.63;;
76131;SDS011;64877;50.994;13.650;2023-02-08T16:39:55;23.25;;;11.52;;
76131;SDS011;64877;50.994;13.650;2023-02-08T16:42:25;21.58;;;10.38;;
76131;SDS011;64877;50.994;13.650;2023-02-08T16:47:26;21.20;;;10.95;;
76131;SDS011;64877;50.994;13.650;2023-02-08T16:49:58;24.65;;;11.75;;
76131;SDS011;64877;50.994;13.650;2023-02-08T16:52:24;22.27;;;11.90;;
76131;SDS011;64877;50.994;13.650;2023-02-08T16:54:49;25.77;;;12.15;;
76131;SDS011;64877;50.994;13.650;2023-02-08T16:57:14;24.45;;;11.32;;
76131;SDS011;64877;50.994;13.650;2023-02-08T16:59:40;23.77;;;12.82;;